sensor_id;sensor_type;location;lat;lon;timestamp;temperature;humidity
73133;DHT22;61320;52.008;4.530;2023-04-01T00:02:17;10.75;86.01
73133;DHT22;61320;52.008;4.530;2023-04-01T00:04:42;10.79;85.95
73133;DHT22;61320;52.008;4.530;2023-04-01T00:07:08;10.71;85.80
73133;DHT22;61320;52.008;4.530;2023-04-01T00:09:34;10.61;86.05
73133;DHT22;61320;52.008;4.530;2023-04-01T00:12:00;10.63;86.24
73133;DHT22;61320;52.008;4.530;2023-04-01T00:14:26;10.68;86.08
73133;DHT22;61320;52.008;4.530;2023-04-01T00:16:51;10.63;85.98
73133;DHT22;61320;52.008;4.530;2023-04-01T00:19:17;10.61;86.17
73133;DHT22;61320;52.008;4.530;2023-04-01T00:21:43;10.65;86.29
73133;DHT22;61320;52.008;4.530;2023-04-01T00:24:09;10.67;86.03
73133;DHT22;61320;52.008;4.530;2023-04-01T00:26:34;10.72;85.90
73133;DHT22;61320;52.008;4.530;2023-04-01T00:29:00;10.68;85.93
73133;DHT22;61320;52.008;4.530;2023-04-01T00:31:26;10.71;85.82
73133;DHT22;61320;52.008;4.530;2023-04-01T00:33:52;10.72;85.80
73133;DHT22;61320;52.008;4.530;2023-04-01T00:36:19;10.71;85.67
73133;DHT22;61320;52.008;4.530;2023-04-01T00:38:47;10.72;85.78
73133;DHT22;61320;52.008;4.530;2023-04-01T00:41:13;10.69;85.88
73133;DHT22;61320;52.008;4.530;2023-04-01T00:43:42;10.77;85.57
73133;DHT22;61320;52.008;4.530;2023-04-01T00:46:07;10.72;85.89
73133;DHT22;61320;52.008;4.530;2023-04-01T00:48:36;10.75;85.68
73133;DHT22;61320;52.008;4.530;2023-04-01T00:51:14;10.74;85.66
73133;DHT22;61320;52.008;4.530;2023-04-01T00:53:46;10.72;85.66
73133;DHT22;61320;52.008;4.530;2023-04-01T00:56:16;10.68;85.51
73133;DHT22;61320;52.008;4.530;2023-04-01T00:58:48;10.67;85.77
73133;DHT22;61320;52.008;4.530;2023-04-01T01:01:16;10.69;85.74
73133;DHT22;61320;52.008;4.530;2023-04-01T01:03:42;10.69;85.47
73133;DHT22;61320;52.008;4.530;2023-04-01T01:09:02;10.57;85.81
73133;DHT22;61320;52.008;4.530;2023-04-01T01:14:43;10.63;85.85
73133;DHT22;61320;52.008;4.530;2023-04-01T01:31:16;10.68;85.58
73133;DHT22;61320;52.008;4.530;2023-04-01T01:36:31;10.72;85.59
73133;DHT22;61320;52.008;4.530;2023-04-01T01:39:01;10.75;85.62
73133;DHT22;61320;52.008;4.530;2023-04-01T01:41:31;10.79;85.71
73133;DHT22;61320;52.008;4.530;2023-04-01T01:43:59;10.81;85.37
73133;DHT22;61320;52.008;4.530;2023-04-01T01:46:30;10.82;85.27
73133;DHT22;61320;52.008;4.530;2023-04-01T01:48:59;10.85;85.41
73133;DHT22;61320;52.008;4.530;2023-04-01T01:51:27;10.85;85.27
73133;DHT22;61320;52.008;4.530;2023-04-01T01:53:53;10.82;85.46
73133;DHT22;61320;52.008;4.530;2023-04-01T01:56:23;10.88;85.35
73133;DHT22;61320;52.008;4.530;2023-04-01T01:58:56;10.88;85.23
73133;DHT22;61320;52.008;4.530;2023-04-01T02:01:31;10.92;85.33
73133;DHT22;61320;52.008;4.530;2023-04-01T02:03:59;10.89;85.03
73133;DHT22;61320;52.008;4.530;2023-04-01T02:06:29;10.89;85.20
73133;DHT22;61320;52.008;4.530;2023-04-01T02:09:02;10.94;85.16
73133;DHT22;61320;52.008;4.530;2023-04-01T02:11:34;10.94;84.98
73133;DHT22;61320;52.008;4.530;2023-04-01T02:14:22;10.92;85.15
73133;DHT22;61320;52.008;4.530;2023-04-01T02:16:58;10.96;85.01
73133;DHT22;61320;52.008;4.530;2023-04-01T02:22:20;10.99;85.13
73133;DHT22;61320;52.008;4.530;2023-04-01T02:24:50;10.98;84.87
73133;DHT22;61320;52.008;4.530;2023-04-01T02:27:19;10.94;84.99
73133;DHT22;61320;52.008;4.530;2023-04-01T02:29:45;10.96;84.99
73133;DHT22;61320;52.008;4.530;2023-04-01T02:32:12;10.99;85.14
73133;DHT22;61320;52.008;4.530;2023-04-01T02:34:39;11.04;85.13
73133;DHT22;61320;52.008;4.530;2023-04-01T02:37:04;11.04;84.89
73133;DHT22;61320;52.008;4.530;2023-04-01T02:39:30;11.04;85.04
73133;DHT22;61320;52.008;4.530;2023-04-01T02:41:56;11.05;85.02
73133;DHT22;61320;52.008;4.530;2023-04-01T02:44:21;11.06;85.12
73133;DHT22;61320;52.008;4.530;2023-04-01T02:46:47;11.05;84.84
73133;DHT22;61320;52.008;4.530;2023-04-01T02:49:12;11.04;85.14
73133;DHT22;61320;52.008;4.530;2023-04-01T02:51:37;11.12;85.26
73133;DHT22;61320;52.008;4.530;2023-04-01T02:54:03;11.13;85.09
73133;DHT22;61320;52.008;4.530;2023-04-01T02:56:29;11.13;84.80
73133;DHT22;61320;52.008;4.530;2023-04-01T02:58:55;11.12;84.96
73133;DHT22;61320;52.008;4.530;2023-04-01T03:01:21;11.13;84.97
73133;DHT22;61320;52.008;4.530;2023-04-01T03:03:47;11.16;85.12
73133;DHT22;61320;52.008;4.530;2023-04-01T03:06:15;11.18;84.88
73133;DHT22;61320;52.008;4.530;2023-04-01T03:08:40;11.19;85.09
73133;DHT22;61320;52.008;4.530;2023-04-01T03:11:06;11.22;84.93
73133;DHT22;61320;52.008;4.530;2023-04-01T03:13:32;11.25;85.08
73133;DHT22;61320;52.008;4.530;2023-04-01T03:15:58;11.32;85.04
73133;DHT22;61320;52.008;4.530;2023-04-01T03:18:23;11.39;84.87
73133;DHT22;61320;52.008;4.530;2023-04-01T03:20:49;11.42;84.72
73133;DHT22;61320;52.008;4.530;2023-04-01T03:23:15;11.43;84.87
73133;DHT22;61320;52.008;4.530;2023-04-01T03:25:43;11.40;84.75
73133;DHT22;61320;52.008;4.530;2023-04-01T03:28:08;11.42;84.54
73133;DHT22;61320;52.008;4.530;2023-04-01T03:30:34;11.40;84.83
73133;DHT22;61320;52.008;4.530;2023-04-01T03:33:00;11.50;84.69
73133;DHT22;61320;52.008;4.530;2023-04-01T03:35:27;11.46;84.62
73133;DHT22;61320;52.008;4.530;2023-04-01T03:37:53;11.42;84.56
73133;DHT22;61320;52.008;4.530;2023-04-01T03:40:19;11.46;84.69
73133;DHT22;61320;52.008;4.530;2023-04-01T03:42:45;11.49;84.63
73133;DHT22;61320;52.008;4.530;2023-04-01T03:45:11;11.53;84.56
73133;DHT22;61320;52.008;4.530;2023-04-01T03:47:38;11.53;84.51
73133;DHT22;61320;52.008;4.530;2023-04-01T03:50:06;11.53;84.48
73133;DHT22;61320;52.008;4.530;2023-04-01T03:52:33;11.54;84.36
73133;DHT22;61320;52.008;4.530;2023-04-01T03:54:58;11.54;84.43
73133;DHT22;61320;52.008;4.530;2023-04-01T03:57:24;11.57;84.60
73133;DHT22;61320;52.008;4.530;2023-04-01T03:59:50;11.57;84.14
73133;DHT22;61320;52.008;4.530;2023-04-01T04:02:17;11.57;84.31
73133;DHT22;61320;52.008;4.530;2023-04-01T04:04:42;11.59;84.37
73133;DHT22;61320;52.008;4.530;2023-04-01T04:07:07;11.63;84.19
73133;DHT22;61320;52.008;4.530;2023-04-01T04:09:33;11.63;84.24
73133;DHT22;61320;52.008;4.530;2023-04-01T04:11:59;11.62;84.20
73133;DHT22;61320;52.008;4.530;2023-04-01T04:14:25;11.59;84.32
73133;DHT22;61320;52.008;4.530;2023-04-01T04:16:50;11.59;84.26
73133;DHT22;61320;52.008;4.530;2023-04-01T04:19:16;11.63;84.20
73133;DHT22;61320;52.008;4.530;2023-04-01T04:21:42;11.66;84.15
73133;DHT22;61320;52.008;4.530;2023-04-01T04:24:08;11.64;84.24
73133;DHT22;61320;52.008;4.530;2023-04-01T04:26:34;11.64;84.09
73133;DHT22;61320;52.008;4.530;2023-04-01T04:29:01;11.64;84.24
73133;DHT22;61320;52.008;4.530;2023-04-01T04:31:27;11.63;84.16
73133;DHT22;61320;52.008;4.530;2023-04-01T04:33:53;11.64;84.27
73133;DHT22;61320;52.008;4.530;2023-04-01T04:36:20;11.64;83.83
73133;DHT22;61320;52.008;4.530;2023-04-01T04:38:46;11.62;84.01
73133;DHT22;61320;52.008;4.530;2023-04-01T04:41:14;11.59;83.89
73133;DHT22;61320;52.008;4.530;2023-04-01T04:43:40;11.54;84.02
73133;DHT22;61320;52.008;4.530;2023-04-01T04:46:10;11.56;84.10
73133;DHT22;61320;52.008;4.530;2023-04-01T04:48:36;11.56;83.98
73133;DHT22;61320;52.008;4.530;2023-04-01T04:51:02;11.56;83.81
73133;DHT22;61320;52.008;4.530;2023-04-01T04:53:28;11.53;84.04
73133;DHT22;61320;52.008;4.530;2023-04-01T04:55:54;11.54;84.04
73133;DHT22;61320;52.008;4.530;2023-04-01T04:58:20;11.53;84.05
73133;DHT22;61320;52.008;4.530;2023-04-01T05:00:46;11.56;83.88
73133;DHT22;61320;52.008;4.530;2023-04-01T05:03:12;11.53;84.13
73133;DHT22;61320;52.008;4.530;2023-04-01T05:05:39;11.53;84.02
73133;DHT22;61320;52.008;4.530;2023-04-01T05:08:05;11.52;83.78
73133;DHT22;61320;52.008;4.530;2023-04-01T05:10:30;11.50;84.17
73133;DHT22;61320;52.008;4.530;2023-04-01T05:12:57;11.56;83.89
73133;DHT22;61320;52.008;4.530;2023-04-01T05:15:23;11.50;83.91
73133;DHT22;61320;52.008;4.530;2023-04-01T05:17:49;11.50;83.73
73133;DHT22;61320;52.008;4.530;2023-04-01T05:20:15;11.50;83.88
73133;DHT22;61320;52.008;4.530;2023-04-01T05:22:42;11.52;83.91
73133;DHT22;61320;52.008;4.530;2023-04-01T05:25:08;11.50;83.76
73133;DHT22;61320;52.008;4.530;2023-04-01T05:27:33;11.46;83.71
73133;DHT22;61320;52.008;4.530;2023-04-01T05:29:59;11.43;84.03
73133;DHT22;61320;52.008;4.530;2023-04-01T05:32:24;11.44;83.86
73133;DHT22;61320;52.008;4.530;2023-04-01T05:34:51;11.42;84.02
73133;DHT22;61320;52.008;4.530;2023-04-01T05:37:16;11.43;83.94
73133;DHT22;61320;52.008;4.530;2023-04-01T05:39:42;11.44;83.92
73133;DHT22;61320;52.008;4.530;2023-04-01T05:42:08;11.43;83.87
73133;DHT22;61320;52.008;4.530;2023-04-01T05:44:34;11.39;83.85
73133;DHT22;61320;52.008;4.530;2023-04-01T05:46:59;11.40;84.09
73133;DHT22;61320;52.008;4.530;2023-04-01T05:49:25;11.42;83.78
73133;DHT22;61320;52.008;4.530;2023-04-01T05:51:51;11.42;83.96
73133;DHT22;61320;52.008;4.530;2023-04-01T05:54:16;11.43;84.01
73133;DHT22;61320;52.008;4.530;2023-04-01T05:56:42;11.42;83.86
73133;DHT22;61320;52.008;4.530;2023-04-01T05:59:12;11.40;84.06
73133;DHT22;61320;52.008;4.530;2023-04-01T06:01:38;11.40;83.84
73133;DHT22;61320;52.008;4.530;2023-04-01T06:04:03;11.43;84.11
73133;DHT22;61320;52.008;4.530;2023-04-01T06:06:31;11.44;83.75
73133;DHT22;61320;52.008;4.530;2023-04-01T06:09:28;11.43;83.59
73133;DHT22;61320;52.008;4.530;2023-04-01T06:12:29;11.36;83.72
73133;DHT22;61320;52.008;4.530;2023-04-01T06:18:21;11.37;83.76
73133;DHT22;61320;52.008;4.530;2023-04-01T06:23:40;11.30;84.01
73133;DHT22;61320;52.008;4.530;2023-04-01T06:26:30;11.29;83.91
73133;DHT22;61320;52.008;4.530;2023-04-01T06:29:08;11.29;83.93
73133;DHT22;61320;52.008;4.530;2023-04-01T06:37:29;11.23;84.24
73133;DHT22;61320;52.008;4.530;2023-04-01T06:46:19;11.32;83.98
73133;DHT22;61320;52.008;4.530;2023-04-01T06:54:34;11.29;84.06
73133;DHT22;61320;52.008;4.530;2023-04-01T06:57:14;11.26;83.73
73133;DHT22;61320;52.008;4.530;2023-04-01T06:59:42;11.23;83.83
73133;DHT22;61320;52.008;4.530;2023-04-01T07:04:48;11.26;84.14
73133;DHT22;61320;52.008;4.530;2023-04-01T07:13:38;11.32;84.23
73133;DHT22;61320;52.008;4.530;2023-04-01T07:16:19;11.39;84.21
73133;DHT22;61320;52.008;4.530;2023-04-01T07:21:40;11.44;83.89
73133;DHT22;61320;52.008;4.530;2023-04-01T07:24:17;11.46;83.92
73133;DHT22;61320;52.008;4.530;2023-04-01T07:26:47;11.49;84.04
73133;DHT22;61320;52.008;4.530;2023-04-01T07:29:14;11.54;84.01
73133;DHT22;61320;52.008;4.530;2023-04-01T07:34:54;11.59;83.81
73133;DHT22;61320;52.008;4.530;2023-04-01T07:37:31;11.56;83.76
73133;DHT22;61320;52.008;4.530;2023-04-01T07:45:54;11.64;84.03
73133;DHT22;61320;52.008;4.530;2023-04-01T07:48:35;11.70;84.00
73133;DHT22;61320;52.008;4.530;2023-04-01T07:51:42;11.71;83.81
73133;DHT22;61320;52.008;4.530;2023-04-01T08:00:02;11.75;83.55
73133;DHT22;61320;52.008;4.530;2023-04-01T08:19:26;11.81;83.90
73133;DHT22;61320;52.008;4.530;2023-04-01T08:21:58;11.87;84.07
73133;DHT22;61320;52.008;4.530;2023-04-01T08:24:44;11.90;83.85
73133;DHT22;61320;52.008;4.530;2023-04-01T08:27:34;11.97;83.85
73133;DHT22;61320;52.008;4.530;2023-04-01T08:30:27;12.02;84.13
73133;DHT22;61320;52.008;4.530;2023-04-01T08:33:28;12.08;83.45
73133;DHT22;61320;52.008;4.530;2023-04-01T08:38:55;11.98;83.60
73133;DHT22;61320;52.008;4.530;2023-04-01T08:41:51;11.99;83.49
73133;DHT22;61320;52.008;4.530;2023-04-01T08:44:53;11.98;83.49
73133;DHT22;61320;52.008;4.530;2023-04-01T09:07:09;12.10;83.59
73133;DHT22;61320;52.008;4.530;2023-04-01T09:12:25;12.15;83.23
73133;DHT22;61320;52.008;4.530;2023-04-01T09:35:49;12.36;83.14
73133;DHT22;61320;52.008;4.530;2023-04-01T09:38:29;12.32;83.36
73133;DHT22;61320;52.008;4.530;2023-04-01T09:53:57;12.50;83.83
73133;DHT22;61320;52.008;4.530;2023-04-01T10:07:57;12.57;83.19
73133;DHT22;61320;52.008;4.530;2023-04-01T10:13:49;12.55;83.13
73133;DHT22;61320;52.008;4.530;2023-04-01T10:22:40;12.62;83.35
73133;DHT22;61320;52.008;4.530;2023-04-01T10:30:57;12.59;83.23
73133;DHT22;61320;52.008;4.530;2023-04-01T10:36:22;12.56;82.98
73133;DHT22;61320;52.008;4.530;2023-04-01T10:39:33;12.55;83.05
73133;DHT22;61320;52.008;4.530;2023-04-01T10:50:38;12.67;83.32
73133;DHT22;61320;52.008;4.530;2023-04-01T11:19:32;12.38;83.31
73133;DHT22;61320;52.008;4.530;2023-04-01T11:25:18;12.45;83.66
73133;DHT22;61320;52.008;4.530;2023-04-01T11:36:20;12.56;83.34
73133;DHT22;61320;52.008;4.530;2023-04-01T11:41:42;12.67;83.42
73133;DHT22;61320;52.008;4.530;2023-04-01T11:44:21;12.70;83.56
73133;DHT22;61320;52.008;4.530;2023-04-01T11:49:49;12.81;83.42
73133;DHT22;61320;52.008;4.530;2023-04-01T11:55:25;12.91;83.22
73133;DHT22;61320;52.008;4.530;2023-04-01T12:17:47;12.76;83.54
73133;DHT22;61320;52.008;4.530;2023-04-01T12:20:26;12.86;83.92
73133;DHT22;61320;52.008;4.530;2023-04-01T12:23:39;12.87;83.29
73133;DHT22;61320;52.008;4.530;2023-04-01T12:26:26;12.86;83.44
73133;DHT22;61320;52.008;4.530;2023-04-01T12:29:07;12.87;83.65
73133;DHT22;61320;52.008;4.530;2023-04-01T12:31:50;12.94;83.85
73133;DHT22;61320;52.008;4.530;2023-04-01T12:40:01;13.10;83.48
73133;DHT22;61320;52.008;4.530;2023-04-01T12:42:52;13.22;83.71
73133;DHT22;61320;52.008;4.530;2023-04-01T12:59:58;13.34;82.86
73133;DHT22;61320;52.008;4.530;2023-04-01T13:04:36;13.35;82.75
73133;DHT22;61320;52.008;4.530;2023-04-01T13:07:37;13.39;82.81
73133;DHT22;61320;52.008;4.530;2023-04-01T13:10:38;13.38;82.54
73133;DHT22;61320;52.008;4.530;2023-04-01T13:16:12;13.41;82.97
73133;DHT22;61320;52.008;4.530;2023-04-01T13:19:15;13.44;83.15
73133;DHT22;61320;52.008;4.530;2023-04-01T13:22:15;13.52;82.85
73133;DHT22;61320;52.008;4.530;2023-04-01T13:27:20;13.52;82.51
73133;DHT22;61320;52.008;4.530;2023-04-01T13:32:53;13.55;82.56
73133;DHT22;61320;52.008;4.530;2023-04-01T13:40:31;13.52;82.25
73133;DHT22;61320;52.008;4.530;2023-04-01T13:43:43;13.55;82.99
73133;DHT22;61320;52.008;4.530;2023-04-01T13:46:35;13.55;82.95
73133;DHT22;61320;52.008;4.530;2023-04-01T14:00:35;13.25;82.22
73133;DHT22;61320;52.008;4.530;2023-04-01T14:25:30;13.32;82.58
73133;DHT22;61320;52.008;4.530;2023-04-01T14:28:25;13.35;82.61
73133;DHT22;61320;52.008;4.530;2023-04-01T14:42:16;13.44;82.79
73133;DHT22;61320;52.008;4.530;2023-04-01T14:44:57;13.42;83.47
73133;DHT22;61320;52.008;4.530;2023-04-01T14:50:24;13.37;83.20
73133;DHT22;61320;52.008;4.530;2023-04-01T14:53:16;13.38;83.46
73133;DHT22;61320;52.008;4.530;2023-04-01T14:55:56;13.44;83.68
73133;DHT22;61320;52.008;4.530;2023-04-01T14:58:40;13.45;84.05
73133;DHT22;61320;52.008;4.530;2023-04-01T15:03:48;13.44;83.88
73133;DHT22;61320;52.008;4.530;2023-04-01T15:06:40;13.37;83.58
73133;DHT22;61320;52.008;4.530;2023-04-01T15:09:40;13.27;83.49
73133;DHT22;61320;52.008;4.530;2023-04-01T15:12:38;13.22;83.83
73133;DHT22;61320;52.008;4.530;2023-04-01T15:28:30;13.00;83.48
73133;DHT22;61320;52.008;4.530;2023-04-01T15:39:19;12.97;83.49
73133;DHT22;61320;52.008;4.530;2023-04-01T15:55:41;13.06;83.80
73133;DHT22;61320;52.008;4.530;2023-04-01T16:03:40;12.91;83.86
73133;DHT22;61320;52.008;4.530;2023-04-01T16:09:04;12.89;83.62
73133;DHT22;61320;52.008;4.530;2023-04-01T16:14:52;12.84;83.82
73133;DHT22;61320;52.008;4.530;2023-04-01T16:17:41;12.87;83.82
73133;DHT22;61320;52.008;4.530;2023-04-01T16:22:39;12.80;83.36
73133;DHT22;61320;52.008;4.530;2023-04-01T16:41:49;12.49;83.78
73133;DHT22;61320;52.008;4.530;2023-04-01T16:44:49;12.46;83.65
73133;DHT22;61320;52.008;4.530;2023-04-01T16:47:24;12.45;83.81
73133;DHT22;61320;52.008;4.530;2023-04-01T16:50:00;12.45;83.69
73133;DHT22;61320;52.008;4.530;2023-04-01T16:52:53;12.45;83.86
73133;DHT22;61320;52.008;4.530;2023-04-01T16:55:45;12.43;83.48
73133;DHT22;61320;52.008;4.530;2023-04-01T16:58:42;12.36;83.53
73133;DHT22;61320;52.008;4.530;2023-04-01T17:01:29;12.33;83.91
73133;DHT22;61320;52.008;4.530;2023-04-01T17:04:10;12.31;83.52
73133;DHT22;61320;52.008;4.530;2023-04-01T17:09:53;12.25;83.94
73133;DHT22;61320;52.008;4.530;2023-04-01T17:12:35;12.24;83.92
73133;DHT22;61320;52.008;4.530;2023-04-01T17:15:21;12.26;84.05
73133;DHT22;61320;52.008;4.530;2023-04-01T17:23:34;12.15;83.47
73133;DHT22;61320;52.008;4.530;2023-04-01T17:26:19;12.14;83.59
73133;DHT22;61320;52.008;4.530;2023-04-01T17:28:57;12.10;83.66
73133;DHT22;61320;52.008;4.530;2023-04-01T17:34:29;11.97;83.42
73133;DHT22;61320;52.008;4.530;2023-04-01T17:39:46;11.91;83.65
73133;DHT22;61320;52.008;4.530;2023-04-01T17:47:57;11.91;83.86
73133;DHT22;61320;52.008;4.530;2023-04-01T17:58:45;11.81;83.76
73133;DHT22;61320;52.008;4.530;2023-04-01T18:03:54;11.80;83.65
73133;DHT22;61320;52.008;4.530;2023-04-01T18:06:47;11.81;83.51
73133;DHT22;61320;52.008;4.530;2023-04-01T18:09:35;11.74;83.46
73133;DHT22;61320;52.008;4.530;2023-04-01T18:26:32;11.67;83.33
73133;DHT22;61320;52.008;4.530;2023-04-01T18:29:15;11.60;83.59
73133;DHT22;61320;52.008;4.530;2023-04-01T18:37:25;11.47;83.71
73133;DHT22;61320;52.008;4.530;2023-04-01T18:42:58;11.47;84.06
73133;DHT22;61320;52.008;4.530;2023-04-01T18:45:37;11.50;83.71
73133;DHT22;61320;52.008;4.530;2023-04-01T18:50:59;11.42;83.76
73133;DHT22;61320;52.008;4.530;2023-04-01T18:53:31;11.47;83.59
73133;DHT22;61320;52.008;4.530;2023-04-01T18:56:05;11.43;83.57
73133;DHT22;61320;52.008;4.530;2023-04-01T19:04:33;11.36;83.45
73133;DHT22;61320;52.008;4.530;2023-04-01T19:09:48;11.25;83.42
73133;DHT22;61320;52.008;4.530;2023-04-01T19:20:47;11.11;83.34
73133;DHT22;61320;52.008;4.530;2023-04-01T19:32:04;10.89;83.54
73133;DHT22;61320;52.008;4.530;2023-04-01T19:34:52;10.81;83.56
73133;DHT22;61320;52.008;4.530;2023-04-01T19:37:41;10.82;83.69
73133;DHT22;61320;52.008;4.530;2023-04-01T19:51:53;10.86;83.81
73133;DHT22;61320;52.008;4.530;2023-04-01T19:54:33;10.82;83.53
73133;DHT22;61320;52.008;4.530;2023-04-01T19:57:34;10.79;83.63
73133;DHT22;61320;52.008;4.530;2023-04-01T20:00:17;10.78;83.56
73133;DHT22;61320;52.008;4.530;2023-04-01T20:06:07;10.79;83.64
73133;DHT22;61320;52.008;4.530;2023-04-01T20:11:34;10.81;83.86
73133;DHT22;61320;52.008;4.530;2023-04-01T20:17:01;10.78;83.27
73133;DHT22;61320;52.008;4.530;2023-04-01T20:25:26;10.65;83.22
73133;DHT22;61320;52.008;4.530;2023-04-01T20:41:27;10.51;82.96
73133;DHT22;61320;52.008;4.530;2023-04-01T20:47:24;10.37;83.22
73133;DHT22;61320;52.008;4.530;2023-04-01T20:52:57;10.36;83.31
73133;DHT22;61320;52.008;4.530;2023-04-01T20:56:10;10.32;83.11
73133;DHT22;61320;52.008;4.530;2023-04-01T21:06:50;10.14;83.22
73133;DHT22;61320;52.008;4.530;2023-04-01T21:15:03;10.18;83.18
73133;DHT22;61320;52.008;4.530;2023-04-01T21:29:29;10.00;82.93
73133;DHT22;61320;52.008;4.530;2023-04-01T21:32:31;9.96;83.00
73133;DHT22;61320;52.008;4.530;2023-04-01T21:43:24;9.79;82.69
73133;DHT22;61320;52.008;4.530;2023-04-01T21:51:33;9.65;82.86
73133;DHT22;61320;52.008;4.530;2023-04-01T22:00:11;9.62;82.80
73133;DHT22;61320;52.008;4.530;2023-04-01T22:10:51;9.37;82.37
73133;DHT22;61320;52.008;4.530;2023-04-01T22:13:58;9.34;82.61
73133;DHT22;61320;52.008;4.530;2023-04-01T22:28:04;9.20;82.82
73133;DHT22;61320;52.008;4.530;2023-04-01T22:30:41;9.27;82.98
73133;DHT22;61320;52.008;4.530;2023-04-01T22:33:21;9.31;82.80
73133;DHT22;61320;52.008;4.530;2023-04-01T22:36:02;9.27;82.61
73133;DHT22;61320;52.008;4.530;2023-04-01T22:43:58;9.20;82.67
73133;DHT22;61320;52.008;4.530;2023-04-01T22:47:04;9.20;82.78
73133;DHT22;61320;52.008;4.530;2023-04-01T22:49:42;9.20;82.67
73133;DHT22;61320;52.008;4.530;2023-04-01T22:52:31;9.18;82.88
73133;DHT22;61320;52.008;4.530;2023-04-01T22:55:04;9.20;82.91
73133;DHT22;61320;52.008;4.530;2023-04-01T23:00:28;9.27;82.74
73133;DHT22;61320;52.008;4.530;2023-04-01T23:03:16;9.21;82.59
73133;DHT22;61320;52.008;4.530;2023-04-01T23:05:52;9.23;82.87
73133;DHT22;61320;52.008;4.530;2023-04-01T23:11:06;9.31;82.56
73133;DHT22;61320;52.008;4.530;2023-04-01T23:13:44;9.32;82.34
73133;DHT22;61320;52.008;4.530;2023-04-01T23:16:15;9.27;82.62
73133;DHT22;61320;52.008;4.530;2023-04-01T23:18:45;9.28;82.24
73133;DHT22;61320;52.008;4.530;2023-04-01T23:21:19;9.26;82.22
73133;DHT22;61320;52.008;4.530;2023-04-01T23:26:50;9.26;82.71
73133;DHT22;61320;52.008;4.530;2023-04-01T23:29:19;9.28;82.54
73133;DHT22;61320;52.008;4.530;2023-04-01T23:31:48;9.30;82.47
73133;DHT22;61320;52.008;4.530;2023-04-01T23:34:30;9.32;82.19
73133;DHT22;61320;52.008;4.530;2023-04-01T23:37:11;9.38;82.36
73133;DHT22;61320;52.008;4.530;2023-04-01T23:39:41;9.37;82.22
73133;DHT22;61320;52.008;4.530;2023-04-01T23:44:56;9.31;82.03
73133;DHT22;61320;52.008;4.530;2023-04-01T23:47:29;9.32;81.85
73133;DHT22;61320;52.008;4.530;2023-04-01T23:50:11;9.30;82.11
73133;DHT22;61320;52.008;4.530;2023-04-01T23:52:45;9.31;81.67
73133;DHT22;61320;52.008;4.530;2023-04-01T23:55:24;9.27;81.95
73133;DHT22;61320;52.008;4.530;2023-04-01T23:58:12;9.23;81.74
